Time;durP1;ratioP1;P1;durP2;ratioP2;P2;SDS_P1;SDS_P2;PMS_P1;PMS_P2;Temp;Humidity;BMP_temperature;BMP_pressure;BME280_temperature;BME280_humidity;BME280_pressure;Samples;Min_cycle;Max_cycle;Signal;HPM_P1;HPM_P2
2021/08/14 00:00:12;;;;;;;10.73;8.38;;;26.20;99.90;;;;;;5014404;28;20451;-70
2021/08/14 00:02:38;;;;;;;13.65;8.57;;;26.20;99.90;;;;;;5012872;28;20088;-69
2021/08/14 00:05:04;;;;;;;9.60;8.80;;;26.20;99.90;;;;;;5012715;28;20037;-69
2021/08/14 00:07:30;;;;;;;9.48;8.65;;;26.30;99.90;;;;;;5011028;28;20034;-69
2021/08/14 00:09:56;;;;;;;11.15;8.48;;;26.40;99.90;;;;;;5012859;28;20026;-70
2021/08/14 00:12:22;;;;;;;9.63;8.73;;;26.30;99.90;;;;;;5011291;28;20026;-70
2021/08/14 00:14:47;;;;;;;10.00;8.73;;;26.20;99.90;;;;;;5011214;28;20060;-71
2021/08/14 00:17:13;;;;;;;14.40;7.90;;;26.20;99.90;;;;;;5011280;28;20033;-70
2021/08/14 00:19:39;;;;;;;9.13;8.00;;;26.20;99.90;;;;;;5011211;28;20041;-70
2021/08/14 00:22:05;;;;;;;12.80;9.23;;;26.20;99.90;;;;;;5011997;28;20034;-70
2021/08/14 00:24:31;;;;;;;10.35;7.18;;;26.40;99.90;;;;;;5011094;28;20357;-69
2021/08/14 00:26:56;;;;;;;13.57;9.10;;;26.30;99.90;;;;;;5012703;28;20030;-70
2021/08/14 00:29:22;;;;;;;9.95;8.15;;;26.30;99.90;;;;;;5012334;28;20034;-70
2021/08/14 00:31:48;;;;;;;14.68;8.55;;;26.20;99.90;;;;;;5010873;28;20040;-69
2021/08/14 00:34:14;;;;;;;10.82;7.50;;;26.10;99.90;;;;;;5012565;28;20026;-69
2021/08/14 00:36:39;;;;;;;8.82;8.00;;;26.10;99.90;;;;;;5012384;28;20361;-69
2021/08/14 00:39:05;;;;;;;10.43;7.97;;;26.10;99.90;;;;;;5011022;28;20119;-69
2021/08/14 00:41:32;;;;;;;10.30;6.68;;;26.10;99.90;;;;;;5010943;28;20030;-69
2021/08/14 00:44:01;;;;;;;9.48;8.63;;;26.10;99.90;;;;;;5012594;28;20374;-70
2021/08/14 00:46:31;;;;;;;10.77;9.13;;;26.10;99.90;;;;;;5011100;28;20029;-70
2021/08/14 00:48:58;;;;;;;10.07;9.02;;;26.10;99.90;;;;;;5010749;28;20018;-70
2021/08/14 00:51:23;;;;;;;12.90;7.82;;;26.00;99.90;;;;;;5012529;28;20376;-70
2021/08/14 00:53:49;;;;;;;14.27;9.23;;;25.90;99.90;;;;;;5012041;28;20093;-69
2021/08/14 00:56:18;;;;;;;15.50;9.52;;;25.80;99.90;;;;;;5010790;28;20442;-70
2021/08/14 00:58:44;;;;;;;9.75;8.70;;;25.80;99.90;;;;;;5010369;28;20028;-70
2021/08/14 01:01:10;;;;;;;13.02;9.25;;;25.80;99.90;;;;;;5010641;28;20022;-70
2021/08/14 01:03:37;;;;;;;10.63;8.60;;;25.70;99.90;;;;;;5011799;28;20048;-69
2021/08/14 01:06:02;;;;;;;16.17;9.85;;;25.60;99.90;;;;;;5010338;28;20084;-70
2021/08/14 01:08:28;;;;;;;11.52;9.88;;;25.50;99.90;;;;;;5011226;28;20034;-69
2021/08/14 01:10:54;;;;;;;10.15;9.15;;;25.50;99.90;;;;;;5010361;28;20158;-68
2021/08/14 01:13:21;;;;;;;10.18;8.75;;;25.50;99.90;;;;;;5011615;28;20392;-69
2021/08/14 01:15:51;;;;;;;10.40;8.70;;;25.50;99.90;;;;;;5011834;28;20033;-69
2021/08/14 01:18:17;;;;;;;9.55;8.63;;;25.50;99.90;;;;;;5011962;28;20114;-69
2021/08/14 01:20:44;;;;;;;9.90;8.80;;;25.50;99.90;;;;;;5013460;28;20046;-69
2021/08/14 01:23:14;;;;;;;9.63;8.68;;;25.40;99.90;;;;;;5013595;28;20444;-69
2021/08/14 01:25:42;;;;;;;8.77;7.95;;;25.40;99.90;;;;;;5012473;28;20078;-68
2021/08/14 01:28:09;;;;;;;10.90;9.80;;;25.50;99.90;;;;;;5011231;28;20026;-69
2021/08/14 01:30:37;;;;;;;8.95;8.05;;;25.50;99.90;;;;;;5012027;28;20052;-70
2021/08/14 01:33:03;;;;;;;9.80;8.68;;;25.70;99.90;;;;;;5009401;28;20068;-70
2021/08/14 01:35:29;;;;;;;9.05;8.10;;;25.70;99.90;;;;;;5009664;28;20053;-69
2021/08/14 01:37:55;;;;;;;9.10;8.23;;;25.80;99.90;;;;;;5009793;28;20444;-70
2021/08/14 01:40:20;;;;;;;8.93;8.20;;;25.80;99.90;;;;;;5011435;28;20033;-70
2021/08/14 01:42:46;;;;;;;11.93;8.63;;;25.80;99.90;;;;;;5011484;28;20265;-70
2021/08/14 01:45:12;;;;;;;13.13;9.50;;;25.80;99.90;;;;;;5011628;28;20488;-70
2021/08/14 01:47:38;;;;;;;10.07;9.18;;;25.80;99.90;;;;;;5011265;28;20025;-70
2021/08/14 01:50:04;;;;;;;10.98;10.05;;;25.70;99.90;;;;;;5011407;28;20499;-70
2021/08/14 01:52:30;;;;;;;10.68;8.73;;;25.60;99.90;;;;;;5009633;28;20026;-69
2021/08/14 01:54:55;;;;;;;9.32;8.43;;;25.60;99.90;;;;;;5011151;28;20084;-69
2021/08/14 01:57:21;;;;;;;9.68;8.75;;;25.60;99.90;;;;;;5009984;28;20425;-69
2021/08/14 01:59:47;;;;;;;9.70;8.57;;;25.50;99.90;;;;;;5009776;28;20080;-69
2021/08/14 02:02:13;;;;;;;11.43;9.25;;;25.50;99.90;;;;;;5009799;28;20037;-69
2021/08/14 02:04:39;;;;;;;8.27;7.43;;;25.50;99.90;;;;;;5009662;28;20029;-69
2021/08/14 02:07:05;;;;;;;13.57;9.35;;;25.50;99.90;;;;;;5010841;28;20109;-69
2021/08/14 02:09:31;;;;;;;10.18;9.10;;;25.60;99.90;;;;;;5011196;28;20496;-70
2021/08/14 02:11:57;;;;;;;11.75;9.55;;;25.80;99.90;;;;;;5010726;28;20499;-70
2021/08/14 02:14:22;;;;;;;14.32;10.00;;;26.00;99.90;;;;;;5011113;28;20026;-70
2021/08/14 02:16:48;;;;;;;13.05;10.68;;;26.10;99.90;;;;;;5009843;28;20026;-70
2021/08/14 02:19:14;;;;;;;12.05;9.10;;;26.00;99.90;;;;;;5011467;28;20288;-72
2021/08/14 02:21:40;;;;;;;11.43;9.73;;;26.00;99.90;;;;;;5009934;28;20038;-70
2021/08/14 02:24:06;;;;;;;13.57;9.38;;;25.90;99.90;;;;;;5009885;28;20032;-70
2021/08/14 02:26:32;;;;;;;10.80;9.82;;;26.00;99.90;;;;;;5009278;28;20030;-70
2021/08/14 02:28:58;;;;;;;11.13;9.60;;;26.10;99.90;;;;;;5010591;28;20033;-71
2021/08/14 02:31:23;;;;;;;10.80;9.50;;;26.10;99.90;;;;;;5010089;28;20026;-71
2021/08/14 02:33:49;;;;;;;10.27;9.35;;;26.20;99.90;;;;;;5009202;28;20100;-70
2021/08/14 02:36:15;;;;;;;8.93;8.18;;;26.20;99.90;;;;;;5010942;28;20053;-70
2021/08/14 02:38:42;;;;;;;9.98;8.98;;;26.30;99.90;;;;;;5010370;28;20399;-71
2021/08/14 02:41:08;;;;;;;9.95;9.07;;;26.30;99.90;;;;;;5009468;28;20053;-70
2021/08/14 02:43:35;;;;;;;9.70;8.48;;;26.40;99.90;;;;;;5009501;28;20131;-72
2021/08/14 02:46:01;;;;;;;10.07;8.60;;;26.40;99.90;;;;;;5013972;28;20445;-71
2021/08/14 02:48:28;;;;;;;10.90;9.80;;;26.50;99.90;;;;;;5013006;28;20036;-70
2021/08/14 02:50:54;;;;;;;10.13;8.23;;;26.50;99.90;;;;;;5014552;28;20050;-70
2021/08/14 02:53:20;;;;;;;9.93;9.05;;;26.50;99.90;;;;;;5014474;28;20392;-70
2021/08/14 02:55:46;;;;;;;11.57;8.88;;;26.40;99.90;;;;;;5013392;28;20028;-70
2021/08/14 02:58:13;;;;;;;12.20;10.10;;;26.40;99.90;;;;;;5013019;28;20138;-71
2021/08/14 03:00:38;;;;;;;12.30;8.77;;;26.50;99.90;;;;;;5013087;28;20052;-71
2021/08/14 03:03:05;;;;;;;9.18;8.43;;;26.50;99.90;;;;;;5013436;28;20440;-70
2021/08/14 03:05:31;;;;;;;9.80;9.00;;;26.50;99.90;;;;;;5014621;28;20022;-70
2021/08/14 03:07:57;;;;;;;10.45;9.38;;;26.50;99.90;;;;;;5013958;28;20524;-70
2021/08/14 03:10:23;;;;;;;9.60;8.55;;;26.50;99.90;;;;;;5014131;28;20105;-69
2021/08/14 03:12:49;;;;;;;11.85;8.73;;;26.40;99.90;;;;;;5013206;28;20059;-71
2021/08/14 03:15:15;;;;;;;9.52;8.73;;;26.30;99.90;;;;;;5013998;28;20084;-70
2021/08/14 03:17:41;;;;;;;9.93;8.90;;;26.20;99.90;;;;;;5012413;28;20026;-69
2021/08/14 03:20:09;;;;;;;12.05;9.30;;;26.20;99.90;;;;;;5014105;28;20056;-69
2021/08/14 03:22:35;;;;;;;11.55;8.63;;;26.10;99.90;;;;;;5012503;28;20511;-70
2021/08/14 03:25:01;;;;;;;12.43;9.00;;;26.10;99.90;;;;;;5012573;28;20145;-70
2021/08/14 03:27:27;;;;;;;9.95;8.95;;;25.90;99.90;;;;;;5012507;28;20114;-70
2021/08/14 03:29:52;;;;;;;10.57;8.82;;;25.90;99.90;;;;;;5012387;28;20110;-70
2021/08/14 03:32:18;;;;;;;9.75;8.30;;;25.90;99.90;;;;;;5013793;28;20040;-69
2021/08/14 03:34:44;;;;;;;14.07;10.05;;;25.90;99.90;;;;;;5012623;28;20045;-70
2021/08/14 03:37:10;;;;;;;15.63;8.50;;;25.90;99.90;;;;;;5013874;28;20472;-70
2021/08/14 03:39:35;;;;;;;10.43;9.18;;;25.90;99.90;;;;;;5013391;28;20083;-70
2021/08/14 03:42:01;;;;;;;10.98;9.75;;;25.90;99.90;;;;;;5013696;28;20507;-70
2021/08/14 03:44:27;;;;;;;10.13;9.25;;;25.90;99.90;;;;;;5012429;28;20026;-69
2021/08/14 03:46:53;;;;;;;12.82;9.25;;;26.00;99.90;;;;;;5012293;28;20076;-70
2021/08/14 03:49:19;;;;;;;10.32;9.38;;;26.00;99.90;;;;;;5013999;28;20106;-71
2021/08/14 03:51:45;;;;;;;10.27;9.27;;;26.00;99.90;;;;;;5015697;28;20475;-70
2021/08/14 03:54:11;;;;;;;10.00;8.95;;;25.90;99.90;;;;;;5014712;28;20185;-70
2021/08/14 03:56:37;;;;;;;11.23;9.25;;;25.90;99.90;;;;;;5011673;28;20499;-70
2021/08/14 03:59:02;;;;;;;10.07;9.07;;;25.90;99.90;;;;;;5011618;28;20037;-70
2021/08/14 04:01:28;;;;;;;11.52;10.27;;;25.80;99.90;;;;;;5013248;28;20025;-70
2021/08/14 04:03:54;;;;;;;14.85;9.75;;;25.60;99.90;;;;;;5011722;28;20080;-70
2021/08/14 04:06:19;;;;;;;11.00;9.93;;;25.50;99.90;;;;;;5013413;28;20030;-69
2021/08/14 04:08:45;;;;;;;9.40;8.50;;;25.50;99.90;;;;;;5012874;28;20073;-70
2021/08/14 04:11:11;;;;;;;11.80;9.25;;;25.70;99.90;;;;;;5012933;28;20144;-69
2021/08/14 04:13:37;;;;;;;9.27;8.40;;;25.80;99.90;;;;;;5012753;28;20030;-70
2021/08/14 04:16:03;;;;;;;10.90;9.57;;;26.00;99.90;;;;;;5011441;28;20036;-70
2021/08/14 04:18:29;;;;;;;10.60;9.73;;;26.10;99.90;;;;;;5011114;28;20026;-70
2021/08/14 04:20:55;;;;;;;11.63;9.57;;;26.20;99.90;;;;;;5012486;28;20483;-70
2021/08/14 04:23:21;;;;;;;21.15;9.95;;;26.20;99.90;;;;;;5011272;28;20104;-71
2021/08/14 04:25:47;;;;;;;10.57;9.45;;;26.20;99.90;;;;;;5012583;28;20030;-70
2021/08/14 04:28:13;;;;;;;11.15;8.23;;;26.20;99.90;;;;;;5012492;28;20029;-71
2021/08/14 04:30:38;;;;;;;9.35;8.55;;;26.30;99.90;;;;;;5011172;28;20024;-70
2021/08/14 04:33:04;;;;;;;9.40;8.10;;;26.40;99.90;;;;;;5012493;28;20076;-71
2021/08/14 04:35:30;;;;;;;10.43;9.40;;;26.50;99.90;;;;;;5013089;28;20308;-70
2021/08/14 04:37:56;;;;;;;13.38;8.88;;;26.40;99.90;;;;;;5011388;28;20322;-70
2021/08/14 04:40:22;;;;;;;13.43;9.45;;;26.40;99.90;;;;;;5012851;28;20030;-71
2021/08/14 04:42:48;;;;;;;10.80;9.70;;;26.40;99.90;;;;;;5011568;28;20518;-69
2021/08/14 04:45:14;;;;;;;9.68;8.75;;;26.40;99.90;;;;;;5011374;28;20057;-70
2021/08/14 04:47:40;;;;;;;12.15;9.00;;;26.40;99.90;;;;;;5012422;28;20122;-70
2021/08/14 04:50:09;;;;;;;11.20;8.85;;;26.40;99.90;;;;;;5012260;28;20583;-71
2021/08/14 04:52:35;;;;;;;15.27;10.65;;;26.50;99.90;;;;;;5012313;28;20037;-70
2021/08/14 04:55:01;;;;;;;11.40;10.05;;;26.50;99.90;;;;;;5012304;28;20022;-70
2021/08/14 04:57:27;;;;;;;10.52;9.07;;;26.50;99.90;;;;;;5012196;28;20021;-69
2021/08/14 04:59:53;;;;;;;13.13;8.95;;;26.50;99.90;;;;;;5011104;28;20045;-69
2021/08/14 05:02:19;;;;;;;9.73;8.90;;;26.40;99.90;;;;;;5013092;28;20049;-71
2021/08/14 05:04:45;;;;;;;10.23;8.63;;;26.40;99.90;;;;;;5012146;28;20030;-70
2021/08/14 05:07:11;;;;;;;17.00;9.18;;;26.40;99.90;;;;;;5010433;28;20037;-69
2021/08/14 05:09:38;;;;;;;12.30;9.95;;;26.40;99.90;;;;;;5011798;28;20026;-71
2021/08/14 05:12:05;;;;;;;10.55;9.48;;;26.40;99.90;;;;;;5010929;28;20534;-69
2021/08/14 05:14:31;;;;;;;12.70;10.02;;;26.40;99.90;;;;;;5012017;28;20084;-69
2021/08/14 05:16:56;;;;;;;13.38;9.75;;;26.50;99.90;;;;;;5012505;28;20022;-70
2021/08/14 05:19:22;;;;;;;12.15;9.90;;;26.60;99.90;;;;;;5011881;28;20496;-70
2021/08/14 05:21:48;;;;;;;12.57;9.88;;;26.60;99.90;;;;;;5011075;28;20042;-69
2021/08/14 05:24:14;;;;;;;9.80;8.43;;;26.70;99.90;;;;;;5010812;28;20518;-70
2021/08/14 05:26:42;;;;;;;10.30;8.05;;;26.70;99.90;;;;;;5011866;28;20396;-70
2021/08/14 05:29:08;;;;;;;11.48;10.32;;;26.80;99.90;;;;;;5011531;28;20022;-70
2021/08/14 05:31:35;;;;;;;15.50;10.52;;;26.80;99.90;;;;;;5010337;28;20396;-69
2021/08/14 05:34:02;;;;;;;13.23;10.00;;;26.90;99.90;;;;;;5011600;28;20041;-70
2021/08/14 05:36:28;;;;;;;11.40;10.30;;;27.00;99.90;;;;;;5011651;28;20026;-69
2021/08/14 05:38:54;;;;;;;11.98;9.40;;;27.00;99.90;;;;;;5011945;28;20488;-70
2021/08/14 05:41:20;;;;;;;13.13;10.27;;;27.10;99.90;;;;;;5011884;28;20045;-71
2021/08/14 05:43:46;;;;;;;13.60;9.85;;;27.10;99.90;;;;;;5011393;28;20037;-70
2021/08/14 05:46:12;;;;;;;15.55;12.30;;;27.10;99.90;;;;;;5011673;28;20071;-70
2021/08/14 05:48:37;;;;;;;17.10;12.73;;;27.10;99.90;;;;;;5012440;28;20029;-69
2021/08/14 05:51:03;;;;;;;14.23;11.20;;;27.10;99.90;;;;;;5010669;28;20105;-69
2021/08/14 05:53:29;;;;;;;16.20;13.07;;;27.10;99.90;;;;;;5011855;28;20140;-69
2021/08/14 05:55:55;;;;;;;11.65;9.68;;;27.20;99.90;;;;;;5010342;28;20029;-70
2021/08/14 05:58:21;;;;;;;11.70;10.60;;;27.30;99.90;;;;;;5011060;28;20038;-70
2021/08/14 06:00:47;;;;;;;13.25;9.95;;;27.40;99.90;;;;;;5011313;28;20106;-70
2021/08/14 06:03:12;;;;;;;12.13;10.50;;;27.50;99.90;;;;;;5009944;28;20040;-70
2021/08/14 06:05:38;;;;;;;11.13;9.00;;;27.50;99.90;;;;;;5010379;28;20117;-71
2021/08/14 06:08:04;;;;;;;12.13;9.50;;;27.70;99.90;;;;;;5009286;28;20520;-71
2021/08/14 06:10:30;;;;;;;10.15;8.80;;;27.80;99.90;;;;;;5011140;28;20100;-71
2021/08/14 06:12:56;;;;;;;10.80;9.90;;;27.80;99.90;;;;;;5009637;28;20579;-71
2021/08/14 06:15:25;;;;;;;11.93;8.65;;;27.90;99.90;;;;;;5010015;28;20113;-71
2021/08/14 06:17:51;;;;;;;12.15;8.73;;;27.90;99.90;;;;;;5010750;28;20551;-70
2021/08/14 06:20:17;;;;;;;14.88;10.73;;;28.10;99.90;;;;;;5008974;28;20117;-72
2021/08/14 06:22:43;;;;;;;11.30;9.77;;;28.10;99.90;;;;;;5010874;28;20046;-71
2021/08/14 06:25:11;;;;;;;10.07;9.18;;;28.20;99.90;;;;;;5011166;28;20076;-70
2021/08/14 06:27:37;;;;;;;10.77;9.80;;;28.30;99.90;;;;;;5010337;28;20050;-70
2021/08/14 06:30:05;;;;;;;10.98;9.38;;;28.40;99.90;;;;;;5010895;28;20018;-71
2021/08/14 06:32:32;;;;;;;11.10;9.93;;;28.50;99.90;;;;;;5009544;28;20049;-70
2021/08/14 06:34:58;;;;;;;9.23;8.35;;;28.50;99.90;;;;;;5010625;28;20022;-71
2021/08/14 06:37:23;;;;;;;12.23;9.93;;;28.60;99.90;;;;;;5009511;28;20076;-71
2021/08/14 06:39:49;;;;;;;10.65;9.52;;;28.60;99.90;;;;;;5011011;28;20030;-71
2021/08/14 06:42:15;;;;;;;12.35;10.00;;;28.70;99.90;;;;;;5009921;28;20476;-71
2021/08/14 06:44:41;;;;;;;10.68;9.45;;;28.80;99.90;;;;;;5011078;28;20038;-70
2021/08/14 06:47:07;;;;;;;13.90;10.05;;;28.70;99.90;;;;;;5010799;28;20468;-70
2021/08/14 06:49:32;;;;;;;12.15;9.85;;;28.80;99.90;;;;;;5009269;28;20397;-70
2021/08/14 06:51:58;;;;;;;14.68;10.32;;;28.70;99.90;;;;;;5010953;28;20030;-70
2021/08/14 06:54:24;;;;;;;10.50;9.65;;;28.80;99.90;;;;;;5011249;28;20077;-69
2021/08/14 06:56:50;;;;;;;9.65;8.80;;;28.80;99.90;;;;;;5010628;28;20476;-70
2021/08/14 06:59:15;;;;;;;12.70;9.45;;;28.80;99.90;;;;;;5010661;28;20550;-69
2021/08/14 07:01:41;;;;;;;11.52;9.45;;;28.80;99.90;;;;;;5010530;28;20030;-70
2021/08/14 07:04:07;;;;;;;10.48;9.45;;;29.00;99.90;;;;;;5009205;28;20037;-70
2021/08/14 07:06:33;;;;;;;10.52;9.40;;;29.10;99.90;;;;;;5010275;28;20117;-70
2021/08/14 07:08:58;;;;;;;10.05;9.15;;;29.10;99.90;;;;;;5009613;28;20026;-70
2021/08/14 07:11:24;;;;;;;11.13;9.23;;;29.20;99.90;;;;;;5010189;28;20026;-70
2021/08/14 07:13:51;;;;;;;8.63;7.85;;;29.30;99.90;;;;;;5010179;28;20030;-70
2021/08/14 07:16:18;;;;;;;12.48;9.32;;;29.40;99.90;;;;;;5010211;28;20022;-70
2021/08/14 07:18:43;;;;;;;10.48;9.48;;;29.40;99.90;;;;;;5010171;28;20026;-70
2021/08/14 07:21:09;;;;;;;9.73;8.80;;;29.40;99.90;;;;;;5010079;28;20034;-71
2021/08/14 07:23:35;;;;;;;10.68;9.57;;;29.40;99.90;;;;;;5008805;28;20392;-71
2021/08/14 07:26:01;;;;;;;10.88;8.82;;;29.50;99.90;;;;;;5010328;28;20370;-70
2021/08/14 07:28:27;;;;;;;11.93;9.07;;;29.50;99.90;;;;;;5009842;28;20076;-71
2021/08/14 07:30:54;;;;;;;17.15;9.77;;;29.50;99.90;;;;;;5008787;28;20109;-71
2021/08/14 07:33:19;;;;;;;18.75;9.43;;;29.60;99.90;;;;;;5013081;28;20028;-71
2021/08/14 07:35:46;;;;;;;24.20;10.25;;;29.60;99.90;;;;;;5012529;28;20026;-69
2021/08/14 07:38:12;;;;;;;19.67;10.07;;;29.70;99.90;;;;;;5012225;28;20022;-70
2021/08/14 07:40:37;;;;;;;14.57;9.23;;;29.90;99.90;;;;;;5012409;28;20041;-70
2021/08/14 07:43:04;;;;;;;10.40;9.25;;;29.90;99.90;;;;;;5014056;28;20029;-71
2021/08/14 07:45:30;;;;;;;13.43;9.27;;;30.00;99.90;;;;;;5014969;28;20056;-71
2021/08/14 07:47:56;;;;;;;12.65;9.95;;;30.00;99.90;;;;;;5014377;28;20022;-71
2021/08/14 07:50:24;;;;;;;18.98;9.77;;;30.00;99.90;;;;;;5013703;28;20114;-70
2021/08/14 07:52:51;;;;;;;16.33;10.20;;;30.10;99.90;;;;;;5011994;28;20045;-71
2021/08/14 07:55:17;;;;;;;14.90;9.43;;;30.10;99.90;;;;;;5012122;28;20033;-69
2021/08/14 07:57:43;;;;;;;16.50;10.02;;;30.20;99.90;;;;;;5011695;28;20030;-70
2021/08/14 08:00:12;;;;;;;14.20;10.00;;;30.20;99.90;;;;;;5012140;28;20384;-70
2021/08/14 08:02:38;;;;;;;15.85;9.52;;;30.20;99.90;;;;;;5013254;28;20030;-70
2021/08/14 08:05:05;;;;;;;14.48;9.25;;;30.30;99.90;;;;;;5011721;28;20087;-70
2021/08/14 08:07:31;;;;;;;16.30;9.73;;;30.40;99.90;;;;;;5012739;28;20026;-70
2021/08/14 08:09:57;;;;;;;13.45;10.02;;;30.50;99.90;;;;;;5011681;28;20032;-70
2021/08/14 08:12:23;;;;;;;13.48;9.90;;;30.60;99.90;;;;;;5011834;28;20022;-70
2021/08/14 08:14:49;;;;;;;23.50;9.45;;;30.70;99.90;;;;;;5011774;28;20026;-70
2021/08/14 08:17:15;;;;;;;14.10;10.05;;;30.70;99.90;;;;;;5012144;28;20172;-71
2021/08/14 08:19:41;;;;;;;27.35;10.55;;;30.70;99.90;;;;;;5012962;28;20172;-71
2021/08/14 08:22:06;;;;;;;12.35;9.07;;;30.80;99.90;;;;;;5013061;28;20164;-70
2021/08/14 08:24:32;;;;;;;13.40;9.10;;;30.90;99.90;;;;;;5011510;28;20037;-71
2021/08/14 08:26:58;;;;;;;14.02;9.73;;;31.00;99.90;;;;;;5012868;28;20524;-71
2021/08/14 08:29:24;;;;;;;13.07;9.00;;;31.00;99.90;;;;;;5013050;28;20056;-70
2021/08/14 08:31:50;;;;;;;8.82;7.95;;;31.10;99.90;;;;;;5011452;28;20052;-71
2021/08/14 08:34:16;;;;;;;13.93;8.70;;;31.10;99.90;;;;;;5013074;28;20010;-70
2021/08/14 08:36:42;;;;;;;13.02;10.10;;;31.20;99.90;;;;;;5013026;28;20026;-70
2021/08/14 08:39:08;;;;;;;12.75;9.38;;;31.20;99.90;;;;;;5011132;28;20049;-71
2021/08/14 08:41:34;;;;;;;13.43;10.57;;;31.10;99.90;;;;;;5012904;28;20034;-70
2021/08/14 08:43:59;;;;;;;13.55;11.43;;;31.10;99.90;;;;;;5012504;28;20026;-69
2021/08/14 08:46:31;;;;;;;17.25;10.82;;;31.00;99.90;;;;;;5012522;28;20037;-71
2021/08/14 08:48:59;;;;;;;12.15;10.95;;;30.90;99.90;;;;;;5011177;28;20105;-71
2021/08/14 08:51:28;;;;;;;18.13;11.38;;;30.90;99.90;;;;;;5012833;28;20054;-70
2021/08/14 08:53:54;;;;;;;16.27;11.10;;;30.90;99.90;;;;;;5010791;28;20021;-70
2021/08/14 08:56:20;;;;;;;13.07;11.63;;;30.80;99.90;;;;;;5011032;28;20408;-72
2021/08/14 08:58:46;;;;;;;13.25;11.85;;;30.60;99.90;;;;;;5010948;28;20034;-71
2021/08/14 09:01:12;;;;;;;12.30;10.85;;;30.50;99.90;;;;;;5010826;28;20488;-70
2021/08/14 09:03:38;;;;;;;16.00;12.23;;;30.50;99.90;;;;;;5011144;28;20330;-70
2021/08/14 09:06:04;;;;;;;13.57;12.23;;;30.40;99.90;;;;;;5012397;28;20480;-71
2021/08/14 09:08:30;;;;;;;11.65;10.57;;;30.40;99.90;;;;;;5011791;28;20022;-70
2021/08/14 09:11:10;;;;;;;13.30;12.00;;;30.40;99.90;;;;;;5011960;28;20400;-69
2021/08/14 09:13:36;;;;;;;14.73;13.20;;;30.40;99.90;;;;;;5011972;28;20097;-71
2021/08/14 09:16:18;;;;;;;14.40;12.93;;;30.30;99.90;;;;;;5012002;28;20502;-70
2021/08/14 09:19:01;;;;;;;12.18;11.02;;;30.30;99.90;;;;;;5011816;28;20022;-71
2021/08/14 09:21:33;;;;;;;14.13;12.88;;;30.30;99.90;;;;;;5010513;28;20385;-70
2021/08/14 09:24:04;;;;;;;17.85;11.93;;;30.10;99.90;;;;;;5012158;28;20062;-70
2021/08/14 09:26:51;;;;;;;15.90;13.75;;;30.00;99.90;;;;;;5012103;28;20018;-70
2021/08/14 09:29:27;;;;;;;14.43;11.50;;;29.90;99.90;;;;;;5007219;28;20025;-70
2021/08/14 09:31:55;;;;;;;14.23;11.68;;;29.70;99.90;;;;;;5012064;28;20052;-72
2021/08/14 09:34:22;;;;;;;13.15;11.82;;;29.50;99.90;;;;;;5012024;28;20069;-70
2021/08/14 09:37:04;;;;;;;15.40;12.20;;;29.50;99.90;;;;;;5010134;28;20108;-71
2021/08/14 09:39:32;;;;;;;13.23;12.00;;;29.50;99.90;;;;;;5011360;28;20026;-70
2021/08/14 09:42:09;;;;;;;20.45;13.85;;;29.50;99.90;;;;;;5011585;28;20473;-70
2021/08/14 09:44:36;;;;;;;16.02;11.63;;;29.60;99.90;;;;;;5011683;28;20384;-70
2021/08/14 09:47:11;;;;;;;13.95;12.55;;;29.60;99.90;;;;;;5011504;28;20104;-72
2021/08/14 09:49:55;;;;;;;13.77;12.57;;;29.60;99.90;;;;;;5009996;28;20112;-71
2021/08/14 09:52:26;;;;;;;15.23;12.32;;;29.60;99.90;;;;;;5011198;28;20021;-71
2021/08/14 09:54:54;;;;;;;14.35;12.38;;;29.60;99.90;;;;;;5009227;28;20036;-70
2021/08/14 09:57:21;;;;;;;13.60;11.43;;;29.60;99.90;;;;;;5011088;28;20403;-71
2021/08/14 09:59:49;;;;;;;13.45;11.27;;;29.40;99.90;;;;;;5009608;28;20026;-71
2021/08/14 10:02:22;;;;;;;13.43;12.02;;;29.50;99.90;;;;;;5010920;28;20022;-70
2021/08/14 10:04:48;;;;;;;15.43;12.93;;;29.50;99.90;;;;;;5011344;28;20037;-72
2021/08/14 10:07:15;;;;;;;16.02;13.98;;;29.50;99.90;;;;;;5009330;28;20022;-71
2021/08/14 10:09:45;;;;;;;14.57;12.73;;;29.60;99.90;;;;;;5010925;28;20037;-71
2021/08/14 10:12:13;;;;;;;23.17;14.38;;;29.50;99.90;;;;;;5011138;28;20033;-70
2021/08/14 10:14:43;;;;;;;17.23;13.70;;;29.30;99.90;;;;;;5009899;28;20392;-72
2021/08/14 10:17:10;;;;;;;16.02;13.40;;;28.90;99.90;;;;;;5012113;28;20498;-72
2021/08/14 10:19:36;;;;;;;16.33;14.63;;;28.90;99.90;;;;;;5011003;28;20397;-70
2021/08/14 10:22:04;;;;;;;20.70;16.17;;;29.00;99.90;;;;;;5010933;28;20196;-70
2021/08/14 10:24:41;;;;;;;17.10;14.63;;;29.00;99.90;;;;;;5010828;28;20029;-71
2021/08/14 10:27:13;;;;;;;20.25;15.13;;;29.10;99.90;;;;;;5009355;28;20047;-71
2021/08/14 10:29:43;;;;;;;18.15;16.33;;;29.20;99.90;;;;;;5009320;28;20361;-70
2021/08/14 10:32:08;;;;;;;15.70;14.10;;;29.30;99.90;;;;;;5010899;28;20030;-71
2021/08/14 10:34:35;;;;;;;19.35;14.35;;;29.30;99.90;;;;;;5010851;28;20554;-71
2021/08/14 10:37:01;;;;;;;15.45;14.23;;;29.30;99.90;;;;;;5009450;28;20051;-73
2021/08/14 10:39:33;;;;;;;16.00;14.57;;;29.40;99.90;;;;;;5009268;28;20030;-70
2021/08/14 10:42:03;;;;;;;;;;;29.40;99.90;;;;;;5011091;28;20499;-71
2021/08/14 10:44:50;;;;;;;17.33;14.32;;;29.30;99.90;;;;;;5010845;28;19971;-70
2021/08/14 10:47:40;;;;;;;19.77;15.60;;;29.30;99.90;;;;;;5010678;28;20018;-71
2021/08/14 10:50:06;;;;;;;18.63;13.57;;;29.30;99.90;;;;;;5010723;28;20033;-70
2021/08/14 10:52:33;;;;;;;17.02;13.50;;;29.20;99.90;;;;;;5010799;28;20021;-71
2021/08/14 10:55:07;;;;;;;18.13;13.65;;;29.30;99.90;;;;;;5011113;28;20305;-71
2021/08/14 10:57:47;;;;;;;13.85;12.65;;;29.30;99.90;;;;;;5010692;28;20080;-70
2021/08/14 11:00:31;;;;;;;15.05;13.70;;;29.40;99.90;;;;;;5010779;28;20044;-70
2021/08/14 11:03:06;;;;;;;15.40;13.75;;;29.50;99.90;;;;;;5009555;28;20076;-71
2021/08/14 11:05:32;;;;;;;14.60;12.15;;;29.60;99.90;;;;;;5011138;28;20026;-70
2021/08/14 11:08:00;;;;;;;12.93;11.93;;;29.60;99.90;;;;;;5014098;28;20026;-70
2021/08/14 11:10:34;;;;;;;14.07;12.57;;;29.80;99.90;;;;;;5014855;28;20173;-71
2021/08/14 11:13:01;;;;;;;15.98;13.48;;;29.80;99.90;;;;;;5015565;28;20022;-71
2021/08/14 11:15:39;;;;;;;18.95;13.40;;;29.70;99.90;;;;;;5014904;28;20484;-69
2021/08/14 11:18:05;;;;;;;14.38;13.18;;;29.80;99.90;;;;;;5014367;28;20129;-71
2021/08/14 11:20:35;;;;;;;15.18;13.63;;;29.80;99.90;;;;;;5014082;28;20038;-71
2021/08/14 11:23:19;;;;;;;14.45;12.48;;;29.90;99.90;;;;;;5013056;28;20472;-71
2021/08/14 11:25:45;;;;;;;13.45;12.13;;;30.00;99.90;;;;;;5013289;28;20415;-71
2021/08/14 11:28:17;;;;;;;16.30;11.13;;;30.00;99.90;;;;;;5012833;28;20041;-71
2021/08/14 11:30:55;;;;;;;13.25;11.93;;;30.20;99.90;;;;;;5012696;28;20022;-70
2021/08/14 11:33:24;;;;;;;15.52;13.35;;;30.20;99.90;;;;;;5014342;28;20087;-71
2021/08/14 11:36:10;;;;;;;14.75;12.82;;;30.20;99.90;;;;;;5014250;28;20029;-72
2021/08/14 11:38:42;;;;;;;13.75;12.38;;;30.30;99.90;;;;;;5015229;28;20523;-71
2021/08/14 11:41:13;;;;;;;13.93;12.27;;;30.30;99.90;;;;;;5012318;28;20056;-71
2021/08/14 11:43:40;;;;;;;14.15;11.40;;;30.30;99.90;;;;;;5012428;28;20503;-72
2021/08/14 11:46:07;;;;;;;12.43;11.23;;;30.30;99.90;;;;;;5013815;28;20030;-71
2021/08/14 11:48:46;;;;;;;12.45;11.25;;;30.30;99.90;;;;;;5013311;28;20105;-71
2021/08/14 11:51:30;;;;;;;20.95;14.10;;;30.20;99.90;;;;;;5012334;28;20399;-71
2021/08/14 11:54:07;;;;;;;14.60;13.25;;;30.20;99.90;;;;;;5013867;28;20172;-70
2021/08/14 11:56:35;;;;;;;13.48;12.25;;;30.00;99.90;;;;;;5013088;28;20055;-70
2021/08/14 11:59:00;;;;;;;15.32;13.80;;;30.20;99.90;;;;;;5014085;28;20033;-72
2021/08/14 12:01:27;;;;;;;15.45;14.05;;;30.20;99.90;;;;;;5012976;28;20116;-71
2021/08/14 12:03:58;;;;;;;15.25;13.63;;;30.30;99.90;;;;;;5012698;28;20555;-72
2021/08/14 12:06:31;;;;;;;14.32;12.82;;;30.40;99.90;;;;;;5012186;28;20125;-70
2021/08/14 12:08:59;;;;;;;16.98;13.10;;;30.50;99.90;;;;;;5013134;28;20053;-71
2021/08/14 12:11:27;;;;;;;15.25;11.93;;;30.50;99.90;;;;;;5013470;28;20060;-72
2021/08/14 12:14:19;;;;;;;15.20;13.20;;;30.40;99.90;;;;;;5011896;28;20034;-72
2021/08/14 12:16:48;;;;;;;13.73;12.45;;;30.40;99.90;;;;;;5012448;28;20053;-71
2021/08/14 12:19:18;;;;;;;13.93;12.60;;;30.40;99.90;;;;;;5012517;28;20037;-70
2021/08/14 12:21:45;;;;;;;13.95;12.75;;;30.40;99.90;;;;;;5012059;28;20040;-72
2021/08/14 12:24:12;;;;;;;12.77;11.77;;;30.40;99.90;;;;;;5013202;28;20062;-70
2021/08/14 12:26:38;;;;;;;13.38;12.15;;;30.30;99.90;;;;;;5014197;28;20030;-72
2021/08/14 12:29:10;;;;;;;14.20;12.90;;;30.50;99.90;;;;;;5013265;28;20032;-71
2021/08/14 12:31:55;;;;;;;17.77;12.18;;;30.40;99.90;;;;;;5012963;28;20021;-70
2021/08/14 12:34:21;;;;;;;13.63;12.23;;;30.50;99.90;;;;;;5011905;28;20026;-70
2021/08/14 12:36:58;;;;;;;12.55;11.23;;;30.70;99.90;;;;;;5013147;28;20080;-70